createdAt,value
2016-12-24T00:00:06.804Z,2.16
2016-12-24T00:01:06.821Z,1.95
2016-12-24T00:05:06.886Z,2.06
2016-12-24T00:06:06.900Z,2.09
2016-12-24T00:07:21.834Z,2.09
2016-12-24T00:08:21.848Z,2.12
2016-12-24T00:09:06.951Z,2.12
2016-12-24T00:10:06.963Z,2.1
2016-12-24T00:11:06.982Z,2.14
2016-12-24T00:12:21.913Z,2.17
2016-12-24T00:13:07.010Z,2.16
2016-12-24T00:14:07.027Z,2.18
2016-12-24T00:15:07.041Z,2.16
2016-12-24T00:16:07.067Z,2.1
2016-12-24T00:18:07.087Z,2.12
2016-12-24T00:19:07.104Z,2.23
2016-12-24T00:20:07.122Z,2.09
2016-12-24T00:21:07.136Z,2.17
2016-12-24T00:22:07.154Z,2.17
2016-12-24T00:23:22.084Z,2.28
2016-12-24T00:24:07.192Z,2.2
2016-12-24T00:25:07.198Z,2.14
2016-12-24T00:26:07.218Z,2.17
2016-12-24T00:27:22.148Z,2.14
2016-12-24T00:28:07.346Z,2.09
2016-12-24T00:29:07.262Z,2.23
2016-12-24T00:30:07.277Z,2.09
2016-12-24T00:31:07.297Z,2.17
2016-12-24T00:32:07.314Z,2.12
2016-12-24T00:33:07.322Z,2.14
2016-12-24T00:34:07.343Z,2.14
2016-12-24T00:35:07.356Z,2.28
2016-12-24T00:36:07.377Z,2.1
2016-12-24T00:37:07.387Z,2.18
2016-12-24T00:38:07.405Z,2.25
2016-12-24T00:39:07.421Z,2.24
2016-12-24T00:40:22.352Z,2.21
2016-12-24T00:41:07.453Z,2.07
2016-12-24T00:42:07.464Z,2.2
2016-12-24T00:43:07.482Z,2.2
2016-12-24T00:44:07.497Z,2.14
2016-12-24T00:45:07.512Z,2.18
2016-12-24T00:46:07.529Z,2.03
2016-12-24T00:47:07.548Z,2.07
2016-12-24T00:48:07.560Z,2.05
2016-12-24T00:51:07.606Z,2.2
2016-12-24T00:52:07.629Z,2.2
2016-12-24T00:53:07.637Z,2.14
2016-12-24T00:54:07.654Z,2.16
2016-12-24T00:55:07.671Z,2.09
2016-12-24T00:56:22.602Z,2.16
2016-12-24T00:57:07.706Z,2.14
2016-12-24T00:58:07.714Z,2.06
2016-12-24T00:59:22.650Z,2.16
2016-12-24T01:00:07.744Z,2.17
2016-12-24T01:01:07.762Z,2.16
2016-12-24T01:02:07.778Z,2.18
2016-12-24T01:03:07.795Z,2.23
2016-12-24T01:04:07.809Z,2.18
2016-12-24T01:05:07.828Z,2.31
2016-12-24T01:06:07.839Z,2.3
2016-12-24T01:07:07.853Z,2.14
2016-12-24T01:08:07.874Z,2.16
2016-12-24T01:09:07.885Z,2.16
2016-12-24T01:10:07.906Z,2.23
2016-12-24T01:11:07.919Z,2.23
2016-12-24T01:12:07.933Z,2.24
2016-12-24T01:13:07.950Z,2.31
2016-12-24T01:14:07.966Z,2.35
2016-12-24T01:15:22.901Z,2.34
2016-12-24T01:16:07.995Z,2.38
2016-12-24T01:17:08.012Z,2.28
2016-12-24T01:18:08.028Z,2.39
2016-12-24T01:19:08.041Z,2.34
2016-12-24T01:20:08.058Z,2.3
2016-12-24T01:22:08.091Z,2.27
2016-12-24T01:23:08.105Z,2.3
2016-12-24T01:24:08.119Z,2.21
2016-12-24T01:25:08.136Z,2.27
2016-12-24T01:26:08.152Z,2.34
2016-12-24T01:27:08.166Z,2.28
2016-12-24T01:28:08.180Z,2.24
2016-12-24T01:29:08.198Z,2.34
2016-12-24T01:30:08.214Z,2.35
2016-12-24T01:31:23.145Z,2.3
2016-12-24T01:32:08.245Z,2.24
2016-12-24T01:33:08.259Z,2.31
2016-12-24T01:34:08.276Z,2.31
2016-12-24T01:35:08.290Z,2.27
2016-12-24T01:37:08.323Z,2.43
2016-12-24T01:39:08.352Z,2.42
2016-12-24T01:40:08.368Z,2.35
2016-12-24T01:41:08.705Z,2.39
2016-12-24T01:42:08.397Z,2.42
2016-12-24T01:43:08.416Z,2.41
2016-12-24T01:44:08.429Z,2.31
2016-12-24T01:45:08.444Z,2.41
2016-12-24T01:46:08.461Z,2.42
2016-12-24T01:47:23.393Z,2.39
2016-12-24T01:48:08.490Z,2.43
2016-12-24T01:49:08.511Z,2.35
2016-12-24T01:50:08.524Z,2.39
2016-12-24T01:51:08.538Z,2.35
2016-12-24T01:52:08.554Z,2.31
2016-12-24T01:53:08.568Z,2.28
2016-12-24T01:54:08.587Z,2.36
2016-12-24T01:55:23.522Z,2.35
2016-12-24T01:56:23.536Z,2.23
2016-12-24T01:57:08.629Z,2.3
2016-12-24T01:58:08.648Z,2.24
2016-12-24T01:59:08.662Z,2.21
2016-12-24T02:00:08.676Z,2.16
2016-12-24T02:01:08.694Z,2.17
2016-12-24T02:02:23.626Z,2.16
2016-12-24T02:03:08.729Z,2.05
2016-12-24T02:04:08.743Z,2.12
2016-12-24T02:05:08.757Z,2.16
2016-12-24T02:06:08.773Z,2.12
2016-12-24T02:07:08.785Z,2.2
2016-12-24T02:08:08.856Z,2.2
2016-12-24T02:10:08.833Z,2.31
2016-12-24T02:11:09.149Z,2.36
2016-12-24T02:12:08.866Z,2.43
2016-12-24T02:13:08.877Z,2.41
2016-12-24T02:14:23.811Z,2.43
2016-12-24T02:15:08.908Z,2.36
2016-12-24T02:16:08.931Z,2.42
2016-12-24T02:17:08.941Z,2.48
2016-12-24T02:18:08.956Z,2.54
2016-12-24T02:19:08.971Z,2.57
2016-12-24T02:20:09.294Z,2.49
2016-12-24T02:21:09.004Z,2.63
2016-12-24T02:22:09.024Z,2.56
2016-12-24T02:23:09.033Z,2.78
2016-12-24T02:24:09.048Z,2.77
2016-12-24T02:25:09.067Z,2.77
2016-12-24T02:26:09.085Z,2.75
2016-12-24T02:27:09.097Z,2.82
2016-12-24T02:28:09.115Z,2.82
2016-12-24T02:29:09.127Z,2.78
2016-12-24T02:30:09.140Z,2.87
2016-12-24T02:31:09.159Z,2.89
2016-12-24T02:32:09.175Z,2.87
2016-12-24T02:33:09.189Z,2.92
2016-12-24T02:34:24.124Z,2.85
2016-12-24T02:35:09.219Z,2.84
2016-12-24T02:36:09.235Z,2.96
2016-12-24T02:37:09.253Z,2.96
2016-12-24T02:39:09.281Z,2.82
2016-12-24T02:41:09.314Z,2.93
2016-12-24T02:42:09.329Z,2.96
2016-12-24T02:43:09.344Z,2.92
2016-12-24T02:44:09.362Z,2.9
2016-12-24T02:45:24.295Z,3.05
2016-12-24T02:46:09.391Z,3.03
2016-12-24T02:47:09.408Z,3.06
2016-12-24T02:48:09.422Z,3.08
2016-12-24T02:49:09.441Z,3.05
2016-12-24T02:50:24.372Z,3.02
2016-12-24T02:51:09.471Z,3
2016-12-24T02:52:09.487Z,3
2016-12-24T02:53:09.502Z,3
2016-12-24T02:54:09.516Z,3.06
2016-12-24T02:55:09.535Z,3.08
2016-12-24T02:56:09.549Z,3.18
2016-12-24T02:57:09.564Z,3.17
2016-12-24T02:58:09.581Z,3.21
2016-12-24T03:00:09.617Z,3.17
2016-12-24T03:01:24.547Z,3.15
2016-12-24T03:02:24.562Z,3.08
2016-12-24T03:03:09.659Z,3.11
2016-12-24T03:04:09.675Z,3.2
2016-12-24T03:05:09.997Z,3.18
2016-12-24T03:06:24.626Z,3.28
2016-12-24T03:07:09.725Z,3.28
2016-12-24T03:08:09.742Z,3.28
2016-12-24T03:09:09.755Z,3.18
2016-12-24T03:11:09.784Z,3.35
2016-12-24T03:12:09.805Z,3.23
2016-12-24T03:13:09.820Z,3.28
2016-12-24T03:14:09.834Z,3.24
2016-12-24T03:15:09.849Z,3.2
2016-12-24T03:16:09.868Z,3.33
2016-12-24T03:17:09.908Z,3.39
2016-12-24T03:18:09.896Z,3.45
2016-12-24T03:19:09.915Z,3.51
2016-12-24T03:20:09.928Z,3.42
2016-12-24T03:21:09.944Z,3.43
2016-12-24T03:22:24.880Z,3.35
2016-12-24T03:23:09.977Z,3.48
2016-12-24T03:24:09.996Z,3.43
2016-12-24T03:25:10.008Z,3.45
2016-12-24T03:26:10.026Z,3.52
2016-12-24T03:27:10.060Z,3.52
2016-12-24T03:28:10.053Z,3.5
2016-12-24T03:29:10.076Z,3.48
2016-12-24T03:31:10.104Z,3.52
2016-12-24T03:32:25.042Z,3.65
2016-12-24T03:33:25.055Z,3.61
2016-12-24T03:34:10.155Z,3.58
2016-12-24T03:35:10.170Z,3.58
2016-12-24T03:36:10.189Z,3.61
2016-12-24T03:37:25.119Z,3.57
2016-12-24T03:38:10.220Z,3.55
2016-12-24T03:39:10.234Z,3.62
2016-12-24T03:40:10.250Z,3.61
2016-12-24T03:41:10.268Z,3.58
2016-12-24T03:42:10.294Z,3.61
2016-12-24T03:43:10.304Z,3.6
2016-12-24T03:44:10.316Z,3.62
2016-12-24T03:45:10.331Z,3.7
2016-12-24T03:46:10.345Z,3.83
2016-12-24T03:47:10.670Z,3.7
2016-12-24T03:48:25.297Z,3.68
2016-12-24T03:49:10.397Z,3.75
2016-12-24T03:50:10.411Z,3.7
2016-12-24T03:51:10.426Z,3.8
2016-12-24T03:52:10.443Z,3.79
2016-12-24T03:53:10.464Z,3.68
2016-12-24T03:54:10.475Z,3.66
2016-12-24T03:55:10.491Z,3.73
2016-12-24T03:56:10.508Z,3.79
2016-12-24T03:57:10.521Z,3.75
2016-12-24T03:58:10.543Z,3.66
2016-12-24T03:59:10.555Z,3.73
2016-12-24T04:00:10.572Z,3.62
2016-12-24T04:01:10.588Z,3.73
2016-12-24T04:02:10.605Z,3.76
2016-12-24T04:03:10.621Z,3.72
2016-12-24T04:04:10.637Z,3.61
2016-12-24T04:05:10.655Z,3.69
2016-12-24T04:06:10.673Z,3.75
2016-12-24T04:07:10.690Z,3.68
2016-12-24T04:08:10.703Z,3.8
2016-12-24T04:09:25.637Z,3.8
2016-12-24T04:10:10.736Z,3.72
2016-12-24T04:11:10.748Z,3.84
2016-12-24T04:12:10.764Z,3.83
2016-12-24T04:13:10.783Z,3.83
2016-12-24T04:15:10.812Z,3.78
2016-12-24T04:16:10.835Z,3.72
2016-12-24T04:17:10.845Z,3.73
2016-12-24T04:18:10.863Z,3.86
2016-12-24T04:19:10.880Z,3.88
2016-12-24T04:20:25.813Z,3.86
2016-12-24T04:21:10.911Z,3.93
2016-12-24T04:22:11.237Z,3.87
2016-12-24T04:23:10.942Z,3.78
2016-12-24T04:24:10.959Z,3.9
2016-12-24T04:25:25.897Z,3.8
2016-12-24T04:26:10.991Z,3.88
2016-12-24T04:27:11.010Z,3.93
2016-12-24T04:28:11.024Z,3.83
2016-12-24T04:29:11.042Z,3.91
2016-12-24T04:30:11.060Z,3.84
2016-12-24T04:31:11.073Z,3.91
2016-12-24T04:33:11.109Z,4
2016-12-24T04:34:11.142Z,4.02
2016-12-24T04:35:11.139Z,4
2016-12-24T04:36:26.073Z,4.04
2016-12-24T04:37:26.088Z,4.05
2016-12-24T04:38:11.188Z,4.11
2016-12-24T04:39:11.203Z,3.98
2016-12-24T04:40:11.221Z,4.02
2016-12-24T04:41:26.153Z,4.06
2016-12-24T04:42:11.251Z,4.02
2016-12-24T04:43:11.269Z,4.14
2016-12-24T04:44:11.588Z,4.12
2016-12-24T04:45:11.299Z,4.04
2016-12-24T04:46:11.317Z,4.04
2016-12-24T04:47:11.332Z,4.02
2016-12-24T04:48:11.350Z,4.15
2016-12-24T04:50:11.389Z,4.11
2016-12-24T04:51:11.397Z,4.12
2016-12-24T04:52:11.416Z,4.24
2016-12-24T04:53:11.433Z,4.27
2016-12-24T04:54:11.452Z,4.27
2016-12-24T04:55:11.768Z,4.27
2016-12-24T04:56:11.480Z,4.4
2016-12-24T04:57:26.414Z,4.4
2016-12-24T04:58:11.512Z,4.33
2016-12-24T04:59:11.532Z,4.26
2016-12-24T05:00:11.547Z,4.22
2016-12-24T05:01:11.561Z,4.36
2016-12-24T05:02:11.579Z,4.42
2016-12-24T05:03:11.598Z,4.37
2016-12-24T05:04:11.611Z,4.37
2016-12-24T05:05:11.631Z,4.42
2016-12-24T05:06:11.645Z,4.42
2016-12-24T05:07:11.660Z,4.45
2016-12-24T05:08:11.681Z,4.36
2016-12-24T05:09:11.694Z,4.4
2016-12-24T05:10:11.710Z,4.41
2016-12-24T05:11:11.726Z,4.44
2016-12-24T05:12:26.664Z,4.55
2016-12-24T05:13:11.759Z,4.42
2016-12-24T05:14:11.784Z,4.45
2016-12-24T05:15:11.795Z,4.6
2016-12-24T05:16:11.810Z,4.48
2016-12-24T05:17:11.833Z,4.5
2016-12-24T05:18:11.842Z,4.5
2016-12-24T05:20:11.874Z,4.45
2016-12-24T05:21:11.892Z,4.52
2016-12-24T05:22:11.910Z,4.67
2016-12-24T05:23:11.927Z,4.62
2016-12-24T05:24:11.945Z,4.65
2016-12-24T05:25:11.959Z,4.72
2016-12-24T05:26:11.975Z,4.66
2016-12-24T05:27:11.991Z,4.7
2016-12-24T05:28:12.014Z,4.65
2016-12-24T05:29:12.026Z,4.77
2016-12-24T05:30:12.044Z,4.72
2016-12-24T05:31:12.059Z,4.66
2016-12-24T05:32:12.076Z,4.66
2016-12-24T05:33:12.091Z,4.73
2016-12-24T05:36:12.143Z,4.69
2016-12-24T05:37:12.158Z,4.73
2016-12-24T05:38:12.174Z,4.77
2016-12-24T05:39:12.195Z,4.73
2016-12-24T05:40:27.128Z,4.73
2016-12-24T05:41:12.226Z,4.65
2016-12-24T05:43:12.259Z,4.72
2016-12-24T05:44:27.196Z,4.66
2016-12-24T05:45:12.292Z,4.67
2016-12-24T05:46:12.309Z,4.7
2016-12-24T05:47:12.326Z,4.67
2016-12-24T05:48:12.341Z,4.77
2016-12-24T05:50:12.375Z,4.67
2016-12-24T05:51:27.315Z,4.6
2016-12-24T05:52:12.408Z,4.73
2016-12-24T05:53:12.425Z,4.69
2016-12-24T05:54:12.443Z,4.65
2016-12-24T05:55:12.460Z,4.72
2016-12-24T05:56:12.476Z,4.62
2016-12-24T05:57:12.496Z,4.63
2016-12-24T05:58:12.508Z,4.62
2016-12-24T05:59:12.528Z,4.72
2016-12-24T06:00:27.461Z,4.69
2016-12-24T06:01:12.564Z,4.67
2016-12-24T06:02:12.577Z,4.72
2016-12-24T06:03:12.595Z,4.66
2016-12-24T06:04:12.610Z,4.65
2016-12-24T06:05:12.626Z,4.67
2016-12-24T06:06:12.743Z,4.62
2016-12-24T06:07:12.660Z,4.62
2016-12-24T06:08:12.677Z,4.7
2016-12-24T06:09:12.693Z,4.84
2016-12-24T06:10:12.711Z,4.82
2016-12-24T06:11:12.726Z,4.69
2016-12-24T06:12:12.751Z,4.66
2016-12-24T06:13:27.678Z,4.77
2016-12-24T06:14:12.780Z,4.8
2016-12-24T06:15:12.796Z,4.73
2016-12-24T06:16:27.728Z,4.69
2016-12-24T06:17:12.828Z,4.75
2016-12-24T06:18:12.846Z,4.7
2016-12-24T06:19:12.860Z,4.7
2016-12-24T06:20:12.877Z,4.72
2016-12-24T06:21:12.896Z,4.77
2016-12-24T06:22:12.913Z,4.78
2016-12-24T06:23:12.931Z,4.77
2016-12-24T06:25:12.970Z,4.66
2016-12-24T06:26:12.978Z,4.75
2016-12-24T06:27:27.914Z,4.73
2016-12-24T06:28:13.013Z,4.8
2016-12-24T06:29:13.030Z,4.69
2016-12-24T06:30:13.045Z,4.82
2016-12-24T06:31:13.061Z,4.7
2016-12-24T06:32:27.999Z,4.65
2016-12-24T06:33:13.095Z,4.73
2016-12-24T06:34:13.114Z,4.7
2016-12-24T06:35:13.127Z,4.67
2016-12-24T06:36:13.146Z,4.75
2016-12-24T06:37:13.190Z,4.88
2016-12-24T06:38:13.184Z,4.75
2016-12-24T06:40:13.531Z,4.78
2016-12-24T06:42:13.245Z,4.7
2016-12-24T06:43:13.266Z,4.78
2016-12-24T06:44:28.198Z,4.8
2016-12-24T06:45:13.299Z,4.85
2016-12-24T06:46:13.314Z,4.72
2016-12-24T06:47:28.251Z,4.7
2016-12-24T06:48:13.350Z,4.67
2016-12-24T06:49:13.362Z,4.84
2016-12-24T06:50:13.382Z,4.78
2016-12-24T06:51:13.398Z,4.72
2016-12-24T06:52:13.416Z,4.7
2016-12-24T06:53:13.431Z,4.8
2016-12-24T06:54:13.447Z,4.77
2016-12-24T06:55:13.466Z,4.73
2016-12-24T06:56:13.485Z,4.75
2016-12-24T06:57:13.498Z,4.69
2016-12-24T06:58:28.435Z,4.73
2016-12-24T06:59:13.534Z,4.69
2016-12-24T07:00:28.467Z,4.75
2016-12-24T07:01:13.570Z,4.88
2016-12-24T07:02:13.583Z,5.03
2016-12-24T07:03:13.604Z,4.96
2016-12-24T07:04:13.615Z,4.89
2016-12-24T07:05:13.633Z,4.86
2016-12-24T07:06:13.652Z,4.86
2016-12-24T07:07:13.666Z,4.88
2016-12-24T07:08:13.685Z,5.03
2016-12-24T07:09:13.701Z,4.92
2016-12-24T07:11:13.736Z,4.99
2016-12-24T07:12:13.753Z,4.96
2016-12-24T07:13:13.773Z,4.97
2016-12-24T07:14:13.788Z,4.86
2016-12-24T07:15:13.804Z,4.88
2016-12-24T07:16:13.824Z,4.94
2016-12-24T07:17:13.836Z,5.04
2016-12-24T07:18:13.877Z,4.96
2016-12-24T07:19:28.789Z,4.92
2016-12-24T07:20:13.887Z,4.85
2016-12-24T07:21:13.905Z,4.91
2016-12-24T07:22:13.924Z,5
2016-12-24T07:23:13.940Z,5
2016-12-24T07:24:13.955Z,4.86
2016-12-24T07:25:13.975Z,4.89
2016-12-24T07:26:13.988Z,4.85
2016-12-24T07:27:14.006Z,4.97
2016-12-24T07:28:14.022Z,4.94
2016-12-24T07:29:14.041Z,5.02
2016-12-24T07:30:14.058Z,5.03
2016-12-24T07:31:14.075Z,5
2016-12-24T07:33:14.107Z,5
2016-12-24T07:34:14.131Z,5.1
2016-12-24T07:35:29.061Z,5.1
2016-12-24T07:36:14.159Z,5.09
2016-12-24T07:37:14.177Z,5.1
2016-12-24T07:38:14.194Z,5.15
2016-12-24T07:39:14.215Z,5.12
2016-12-24T07:40:14.227Z,5.21
2016-12-24T07:41:14.242Z,5.13
2016-12-24T07:43:14.280Z,5.12
2016-12-24T07:44:14.295Z,5.2
2016-12-24T07:45:14.312Z,5.18
2016-12-24T07:46:29.248Z,5.28
2016-12-24T07:47:14.652Z,5.13
2016-12-24T07:48:14.364Z,5.13
2016-12-24T07:49:14.378Z,5.22
2016-12-24T07:50:14.396Z,5.21
2016-12-24T07:51:29.335Z,5.3
2016-12-24T07:52:14.431Z,5.33
2016-12-24T07:53:14.449Z,5.3
2016-12-24T07:54:14.771Z,5.3
2016-12-24T07:55:14.485Z,5.27
2016-12-24T07:56:14.498Z,5.31
2016-12-24T07:57:14.520Z,5.35
2016-12-24T07:58:14.532Z,5.33
2016-12-24T07:59:14.562Z,5.3
2016-12-24T08:00:14.568Z,5.33
2016-12-24T08:01:14.587Z,5.43
2016-12-24T08:02:14.605Z,5.4
2016-12-24T08:03:29.541Z,5.49
2016-12-24T08:04:14.638Z,5.38
2016-12-24T08:05:14.653Z,5.45
2016-12-24T08:06:14.672Z,5.43
2016-12-24T08:07:29.609Z,5.56
2016-12-24T08:08:14.704Z,5.51
2016-12-24T08:09:14.728Z,5.45
2016-12-24T08:10:15.042Z,5.49
2016-12-24T08:11:14.756Z,5.42
2016-12-24T08:12:14.775Z,5.43
2016-12-24T08:13:14.791Z,5.49
2016-12-24T08:14:14.808Z,5.42
2016-12-24T08:15:14.827Z,5.38
2016-12-24T08:16:14.845Z,5.43
2016-12-24T08:17:14.864Z,5.4
2016-12-24T08:18:29.797Z,5.46
2016-12-24T08:19:14.893Z,5.42
2016-12-24T08:20:14.917Z,5.46
2016-12-24T08:21:14.929Z,5.54
2016-12-24T08:22:29.867Z,5.48
2016-12-24T08:23:14.965Z,5.54
2016-12-24T08:24:14.983Z,5.54
2016-12-24T08:25:15.000Z,5.46
2016-12-24T08:26:15.017Z,5.51
2016-12-24T08:27:15.038Z,5.49
2016-12-24T08:28:15.065Z,5.49
2016-12-24T08:29:15.069Z,5.51
2016-12-24T08:30:15.091Z,5.51
2016-12-24T08:31:15.104Z,5.45
2016-12-24T08:32:15.141Z,5.53
2016-12-24T08:33:30.058Z,5.53
2016-12-24T08:34:15.159Z,5.54
2016-12-24T08:35:30.091Z,5.65
2016-12-24T08:36:15.194Z,5.72
2016-12-24T08:37:15.208Z,5.61
2016-12-24T08:38:15.226Z,5.65
2016-12-24T08:39:15.246Z,5.78
2016-12-24T08:40:15.260Z,5.72
2016-12-24T08:41:15.281Z,5.67
2016-12-24T08:42:15.295Z,5.71
2016-12-24T08:43:15.318Z,5.64
2016-12-24T08:45:15.350Z,5.61
2016-12-24T08:46:15.367Z,5.68
2016-12-24T08:48:15.402Z,5.75
2016-12-24T08:49:30.338Z,5.86
2016-12-24T08:50:15.434Z,5.96
2016-12-24T08:51:15.455Z,5.97
2016-12-24T08:52:15.470Z,5.89
2016-12-24T08:53:15.690Z,5.9
2016-12-24T08:54:30.424Z,5.9
2016-12-24T08:55:15.525Z,5.83
2016-12-24T08:56:15.544Z,5.97
2016-12-24T08:57:15.559Z,6
2016-12-24T08:58:15.574Z,5.99
2016-12-24T08:59:15.597Z,5.93
2016-12-24T09:00:15.611Z,5.93
2016-12-24T09:03:15.665Z,5.96
2016-12-24T09:04:15.682Z,6.09
2016-12-24T09:05:15.701Z,6.14
2016-12-24T09:06:30.636Z,6.08
2016-12-24T09:07:15.738Z,6.03
2016-12-24T09:08:15.753Z,6.06
2016-12-24T09:09:15.775Z,6.15
2016-12-24T09:10:30.707Z,6.18
2016-12-24T09:11:15.808Z,6.17
2016-12-24T09:12:15.852Z,6.14
2016-12-24T09:13:15.842Z,6.17
2016-12-24T09:14:15.862Z,6.18
2016-12-24T09:15:15.876Z,6.14
2016-12-24T09:16:15.896Z,6.09
2016-12-24T09:18:15.934Z,6.18
2016-12-24T09:19:15.950Z,6.17
2016-12-24T09:20:15.966Z,6.19
2016-12-24T09:21:15.987Z,6.27
2016-12-24T09:22:30.922Z,6.27
2016-12-24T09:23:30.939Z,6.31
2016-12-24T09:24:16.039Z,6.25
2016-12-24T09:25:16.057Z,6.34
2016-12-24T09:26:30.993Z,6.33
2016-12-24T09:27:16.095Z,6.33
2016-12-24T09:28:16.110Z,6.33
2016-12-24T09:29:16.128Z,6.34
2016-12-24T09:30:16.149Z,6.36
2016-12-24T09:31:16.165Z,6.41
2016-12-24T09:32:16.182Z,6.46
2016-12-24T09:35:16.237Z,6.52
2016-12-24T09:36:31.175Z,6.52
2016-12-24T09:37:16.272Z,6.55
2016-12-24T09:38:16.291Z,6.55
2016-12-24T09:39:16.690Z,6.54
2016-12-24T09:40:16.326Z,6.51
2016-12-24T09:41:16.659Z,6.48
2016-12-24T09:42:31.284Z,6.41
2016-12-24T09:43:16.381Z,6.46
2016-12-24T09:44:16.400Z,6.61
2016-12-24T09:45:16.419Z,6.52
2016-12-24T09:46:16.436Z,6.52
2016-12-24T09:47:16.454Z,6.37
2016-12-24T09:49:16.498Z,6.54
2016-12-24T09:50:16.511Z,6.58
2016-12-24T09:51:16.865Z,6.59
2016-12-24T09:52:16.546Z,6.55
2016-12-24T09:53:16.566Z,6.61
2016-12-24T09:54:16.582Z,6.64
2016-12-24T09:55:16.605Z,6.59
2016-12-24T09:56:16.616Z,6.54
2016-12-24T09:57:31.555Z,6.4
2016-12-24T09:58:16.655Z,6.41
2016-12-24T09:59:16.672Z,6.46
2016-12-24T10:00:16.693Z,6.61
2016-12-24T10:01:16.713Z,6.58
2016-12-24T10:02:16.729Z,6.58
2016-12-24T10:03:16.744Z,6.56
2016-12-24T10:04:16.765Z,6.55
2016-12-24T10:05:16.782Z,6.55
2016-12-24T10:06:16.803Z,6.52
2016-12-24T10:08:16.836Z,6.54
2016-12-24T10:09:16.856Z,6.59
2016-12-24T10:10:31.792Z,6.54
2016-12-24T10:11:16.891Z,6.52
2016-12-24T10:12:16.909Z,6.49
2016-12-24T10:13:16.929Z,6.56
2016-12-24T10:14:16.946Z,6.56
2016-12-24T10:15:16.965Z,6.54
2016-12-24T10:16:16.985Z,6.41
2016-12-24T10:17:16.999Z,6.46
2016-12-24T10:18:17.019Z,6.67
2016-12-24T10:19:17.038Z,6.69
2016-12-24T10:20:17.054Z,6.74
2016-12-24T10:23:17.113Z,6.74
2016-12-24T10:24:32.049Z,6.7
2016-12-24T10:25:17.758Z,6.73
2016-12-24T10:26:17.478Z,6.61
2016-12-24T10:27:17.190Z,6.74
2016-12-24T10:28:17.203Z,6.74
2016-12-24T10:29:32.139Z,6.73
2016-12-24T10:30:17.239Z,6.7
2016-12-24T10:31:17.256Z,6.7
2016-12-24T10:32:17.275Z,6.71
2016-12-24T10:33:17.296Z,6.71
2016-12-24T10:34:17.320Z,6.7
2016-12-24T10:35:17.331Z,6.76
2016-12-24T10:37:17.371Z,6.73
2016-12-24T10:38:17.387Z,6.8
2016-12-24T10:39:17.406Z,6.88
2016-12-24T10:40:17.422Z,6.92
2016-12-24T10:41:17.448Z,6.88
2016-12-24T10:42:32.378Z,6.95
2016-12-24T10:43:32.700Z,6.97
2016-12-24T10:44:17.496Z,7.03
2016-12-24T10:45:32.436Z,7.03
2016-12-24T10:46:17.535Z,6.92
2016-12-24T10:47:17.552Z,6.98
2016-12-24T10:48:17.572Z,7.02
2016-12-24T10:49:17.591Z,6.98
2016-12-24T10:50:17.606Z,6.89
2016-12-24T10:51:17.626Z,6.88
2016-12-24T10:52:17.649Z,6.97
2016-12-24T10:53:17.972Z,6.99
2016-12-24T10:54:17.682Z,6.97
2016-12-24T10:55:17.702Z,7.07
2016-12-24T10:56:32.639Z,6.95
2016-12-24T10:57:17.738Z,7.13
2016-12-24T10:58:32.674Z,7.06
2016-12-24T10:59:17.779Z,7.17
2016-12-24T11:00:17.793Z,7.13
2016-12-24T11:01:32.731Z,7.09
2016-12-24T11:02:17.829Z,7.21
2016-12-24T11:03:17.850Z,7.13
2016-12-24T11:04:17.871Z,7.16
2016-12-24T11:05:17.887Z,7.12
2016-12-24T11:06:17.905Z,7.25
2016-12-24T11:07:17.925Z,7.28
2016-12-24T11:08:17.944Z,7.27
2016-12-24T11:09:32.884Z,7.32
2016-12-24T11:10:17.981Z,7.35
2016-12-24T11:11:17.999Z,7.35
2016-12-24T11:12:18.037Z,7.39
2016-12-24T11:13:32.955Z,7.32
2016-12-24T11:14:18.057Z,7.37
2016-12-24T11:15:18.074Z,7.28
2016-12-24T11:16:18.094Z,7.32
2016-12-24T11:17:33.030Z,7.37
2016-12-24T11:18:18.134Z,7.37
2016-12-24T11:19:18.149Z,7.39
2016-12-24T11:20:18.169Z,7.37
2016-12-24T11:21:18.187Z,7.43
2016-12-24T11:22:18.207Z,7.43
2016-12-24T11:24:18.243Z,7.53
2016-12-24T11:25:18.267Z,7.64
2016-12-24T11:26:18.283Z,7.71
2016-12-24T11:27:18.298Z,7.57
2016-12-24T11:28:18.320Z,7.68
2016-12-24T11:29:33.257Z,7.58
2016-12-24T11:30:18.357Z,7.61
2016-12-24T11:31:18.376Z,7.68
2016-12-24T11:32:33.316Z,7.52
2016-12-24T11:33:18.414Z,7.48
2016-12-24T11:34:18.434Z,7.5
2016-12-24T11:35:18.452Z,7.46
2016-12-24T11:36:18.500Z,7.32
2016-12-24T11:38:18.509Z,7.25
2016-12-24T11:39:18.526Z,7.23
2016-12-24T11:40:18.553Z,7.25
2016-12-24T11:43:33.522Z,7.24
2016-12-24T11:44:33.540Z,7.34
2016-12-24T11:45:18.640Z,7.32
2016-12-24T11:46:18.657Z,7.28
2016-12-24T11:47:18.677Z,7.24
2016-12-24T11:48:18.698Z,7.28
2016-12-24T11:49:18.720Z,7.39
2016-12-24T11:50:18.735Z,7.37
2016-12-24T11:51:18.752Z,7.25
2016-12-24T11:52:18.769Z,7.35
2016-12-24T11:53:18.793Z,7.4
2016-12-24T11:54:18.808Z,7.3
2016-12-24T11:55:18.832Z,7.39
2016-12-24T11:57:18.867Z,7.37
2016-12-24T11:58:18.887Z,7.37
2016-12-24T11:59:33.822Z,7.4
2016-12-24T12:00:18.923Z,7.37
2016-12-24T12:01:18.945Z,7.42
2016-12-24T12:02:18.980Z,7.37
2016-12-24T12:03:18.977Z,7.42
2016-12-24T12:04:33.916Z,7.39
2016-12-24T12:05:19.017Z,7.34
2016-12-24T12:06:19.036Z,7.31
2016-12-24T12:07:19.053Z,7.4
2016-12-24T12:08:19.076Z,7.34
2016-12-24T12:09:19.102Z,7.4
2016-12-24T12:10:19.109Z,7.46
2016-12-24T12:11:19.141Z,7.5
2016-12-24T12:12:19.148Z,7.42
2016-12-24T12:13:19.470Z,7.35
2016-12-24T12:14:19.185Z,7.39
2016-12-24T12:15:19.206Z,7.42
2016-12-24T12:16:34.141Z,7.43
2016-12-24T12:17:19.248Z,7.37
2016-12-24T12:18:19.260Z,7.34
2016-12-24T12:19:19.280Z,7.35
2016-12-24T12:20:34.217Z,7.25
2016-12-24T12:21:19.321Z,7.25
2016-12-24T12:22:19.336Z,7.37
2016-12-24T12:23:19.357Z,7.4
2016-12-24T12:24:19.375Z,7.39
2016-12-24T12:25:19.393Z,7.42
2016-12-24T12:26:19.414Z,7.39
2016-12-24T12:27:19.433Z,7.45
2016-12-24T12:28:19.463Z,7.4
2016-12-24T12:29:19.473Z,7.48
2016-12-24T12:30:19.486Z,7.5
2016-12-24T12:31:19.533Z,7.5
2016-12-24T12:33:19.569Z,7.48
2016-12-24T12:34:19.568Z,7.39
2016-12-24T12:35:19.585Z,7.4
2016-12-24T12:36:34.521Z,7.48
2016-12-24T12:37:19.638Z,7.48
2016-12-24T12:38:19.643Z,7.45
2016-12-24T12:39:19.661Z,7.45
2016-12-24T12:40:19.682Z,7.49
2016-12-24T12:41:19.705Z,7.46
2016-12-24T12:42:19.718Z,7.49
2016-12-24T12:43:19.743Z,7.55
2016-12-24T12:44:19.759Z,7.63
2016-12-24T12:45:19.773Z,7.68
2016-12-24T12:46:34.713Z,7.55
2016-12-24T12:47:19.813Z,7.52
2016-12-24T12:48:19.833Z,7.46
2016-12-24T12:49:19.849Z,7.5
2016-12-24T12:50:19.872Z,7.5
2016-12-24T12:51:19.889Z,7.58
2016-12-24T12:52:34.827Z,7.6
2016-12-24T12:53:20.231Z,7.48
2016-12-24T12:54:19.972Z,7.53
2016-12-24T12:55:19.966Z,7.6
2016-12-24T12:56:19.988Z,7.63
2016-12-24T12:57:20.039Z,7.58
2016-12-24T12:59:20.045Z,7.58
2016-12-24T13:01:20.091Z,7.61
2016-12-24T13:02:20.100Z,7.74
2016-12-24T13:03:20.120Z,7.63
2016-12-24T13:04:20.137Z,7.58
2016-12-24T13:05:20.161Z,7.55
2016-12-24T13:06:20.206Z,7.53
2016-12-24T13:07:35.118Z,7.5
2016-12-24T13:08:20.218Z,7.5
2016-12-24T13:09:20.233Z,7.5
2016-12-24T13:10:20.253Z,7.58
2016-12-24T13:11:20.273Z,7.42
2016-12-24T13:13:20.621Z,7.53
2016-12-24T13:14:20.330Z,7.52
2016-12-24T13:15:20.354Z,7.53
2016-12-24T13:16:20.368Z,7.43
2016-12-24T13:17:20.391Z,7.45
2016-12-24T13:18:35.328Z,7.48
2016-12-24T13:19:20.430Z,7.55
2016-12-24T13:20:20.448Z,7.52
2016-12-24T13:21:20.466Z,7.45
2016-12-24T13:22:20.486Z,7.5
2016-12-24T13:23:20.508Z,7.5
2016-12-24T13:24:20.528Z,7.53
2016-12-24T13:25:20.546Z,7.49
2016-12-24T13:26:20.562Z,7.55
2016-12-24T13:27:20.582Z,7.49
2016-12-24T13:28:20.599Z,7.5
2016-12-24T13:29:20.621Z,7.4
2016-12-24T13:30:20.642Z,7.34
2016-12-24T13:31:20.661Z,7.4
2016-12-24T13:32:20.676Z,7.35
2016-12-24T13:33:20.699Z,7.35
2016-12-24T13:34:20.717Z,7.35
2016-12-24T13:35:35.655Z,7.31
2016-12-24T13:36:20.763Z,7.32
2016-12-24T13:37:20.779Z,7.35
2016-12-24T13:38:20.791Z,7.35
2016-12-24T13:39:35.731Z,7.4
2016-12-24T13:40:20.831Z,7.39
2016-12-24T13:41:20.852Z,7.4
2016-12-24T13:42:20.869Z,7.43
2016-12-24T13:43:20.889Z,7.4
2016-12-24T13:44:20.909Z,7.34
2016-12-24T13:45:20.930Z,7.34
2016-12-24T13:46:20.948Z,7.34
2016-12-24T13:47:20.963Z,7.4
2016-12-24T13:48:20.992Z,7.35
2016-12-24T13:49:21.005Z,7.39
2016-12-24T13:50:21.026Z,7.42
2016-12-24T13:51:21.043Z,7.39
2016-12-24T13:52:21.063Z,7.32
2016-12-24T13:53:21.080Z,7.43
2016-12-24T13:54:21.099Z,7.42
2016-12-24T13:55:36.039Z,7.35
2016-12-24T13:56:21.137Z,7.45
2016-12-24T13:57:21.161Z,7.39
2016-12-24T13:58:21.479Z,7.37
2016-12-24T13:59:21.196Z,7.34
2016-12-24T14:00:21.215Z,7.4
2016-12-24T14:01:21.233Z,7.39
2016-12-24T14:02:21.251Z,7.45
2016-12-24T14:03:21.305Z,7.48
2016-12-24T14:04:21.289Z,7.45
2016-12-24T14:05:21.308Z,7.4
2016-12-24T14:06:21.329Z,7.39
2016-12-24T14:07:21.347Z,7.34
2016-12-24T14:08:21.366Z,7.35
2016-12-24T14:09:21.386Z,7.4
2016-12-24T14:10:21.405Z,7.39
2016-12-24T14:11:36.342Z,7.32
2016-12-24T14:12:21.443Z,7.4